<?xml version="1.0" encoding="UTF-8"?>
<gpx xmlns="http://www.topografix.com/GPX/1/1" xmlns:xsi="http://www.w3.org/2001/XMLSchema-instance" version="1.1" xsi:schemaLocation="http://www.topografix.com/GPX/1/1 http://www.topografix.com/GPX/1/1/gpx.xsd">
  <metadata>
    <name>Great Buckeye Challenge Triathlon 2023 - Sprint Aquabike</name>
  </metadata>
  <trk>
    <name>Great Buckeye Challenge Triathlon 2023 - Sprint Aquabike</name>
    <trkseg>
      <trkpt lat="39.94735" lon="-83.731679">
        <ele>319.946366</ele>
        <time>2024-07-28T08:00:00.000Z</time>
      </trkpt>
      <trkpt lat="39.947393" lon="-83.731652">
        <ele>319.946369</ele>
        <time>2024-07-28T08:00:01.000Z</time>
      </trkpt>
      <trkpt lat="39.947937" lon="-83.731489">
        <ele>319.94638</ele>
        <time>2024-07-28T08:00:07.000Z</time>
      </trkpt>
      <trkpt lat="39.948168" lon="-83.731382">
        <ele>319.946375</ele>
        <time>2024-07-28T08:00:10.000Z</time>
      </trkpt>
      <trkpt lat="39.948377" lon="-83.731302">
        <ele>320.064158</ele>
        <time>2024-07-28T08:00:12.000Z</time>
      </trkpt>
      <trkpt lat="39.94862" lon="-83.731172">
        <ele>320.254903</ele>
        <time>2024-07-28T08:00:15.000Z</time>
      </trkpt>
      <trkpt lat="39.948777" lon="-83.731056">
        <ele>320.383803</ele>
        <time>2024-07-28T08:00:17.000Z</time>
      </trkpt>
      <trkpt lat="39.948799" lon="-83.730928">
        <ele>320.460294</ele>
        <time>2024-07-28T08:00:18.000Z</time>
      </trkpt>
      <trkpt lat="39.948764" lon="-83.730359">
        <ele>320.76808</ele>
        <time>2024-07-28T08:00:23.000Z</time>
      </trkpt>
      <trkpt lat="39.94881" lon="-83.730141">
        <ele>320.888023</ele>
        <time>2024-07-28T08:00:25.000Z</time>
      </trkpt>
      <trkpt lat="39.948808" lon="-83.729761">
        <ele>321.100786</ele>
        <time>2024-07-28T08:00:28.000Z</time>
      </trkpt>
      <trkpt lat="39.948312" lon="-83.729845">
        <ele>321.217152</ele>
        <time>2024-07-28T08:00:34.000Z</time>
      </trkpt>
      <trkpt lat="39.947801" lon="-83.729845">
        <ele>321.197305</ele>
        <time>2024-07-28T08:00:40.000Z</time>
      </trkpt>
      <trkpt lat="39.947302" lon="-83.729784">
        <ele>321.178234</ele>
        <time>2024-07-28T08:00:46.000Z</time>
      </trkpt>
      <trkpt lat="39.946864" lon="-83.729686">
        <ele>321.160792</ele>
        <time>2024-07-28T08:00:51.000Z</time>
      </trkpt>
      <trkpt lat="39.945961" lon="-83.729497">
        <ele>320.521494</ele>
        <time>2024-07-28T08:01:01.000Z</time>
      </trkpt>
      <trkpt lat="39.945503" lon="-83.729449">
        <ele>320.19259</ele>
        <time>2024-07-28T08:01:06.000Z</time>
      </trkpt>
      <trkpt lat="39.945188" lon="-83.729442">
        <ele>319.959766</ele>
        <time>2024-07-28T08:01:10.000Z</time>
      </trkpt>
      <trkpt lat="39.944871" lon="-83.729459">
        <ele>319.784928</ele>
        <time>2024-07-28T08:01:14.000Z</time>
      </trkpt>
      <trkpt lat="39.944426" lon="-83.729501">
        <ele>319.589332</ele>
        <time>2024-07-28T08:01:19.000Z</time>
      </trkpt>
      <trkpt lat="39.943165" lon="-83.729663">
        <ele>319.09814</ele>
        <time>2024-07-28T08:01:33.000Z</time>
      </trkpt>
      <trkpt lat="39.942375" lon="-83.729758">
        <ele>319.186844</ele>
        <time>2024-07-28T08:01:42.000Z</time>
      </trkpt>
      <trkpt lat="39.941884" lon="-83.729808">
        <ele>319.241556</ele>
        <time>2024-07-28T08:01:47.000Z</time>
      </trkpt>
      <trkpt lat="39.940699" lon="-83.729968">
        <ele>319.366204</ele>
        <time>2024-07-28T08:02:00.000Z</time>
      </trkpt>
      <trkpt lat="39.93982" lon="-83.730085">
        <ele>319.455971</ele>
        <time>2024-07-28T08:02:10.000Z</time>
      </trkpt>
      <trkpt lat="39.938167" lon="-83.730334">
        <ele>319.229387</ele>
        <time>2024-07-28T08:02:29.000Z</time>
      </trkpt>
      <trkpt lat="39.938289" lon="-83.727388">
        <ele>320.185947</ele>
        <time>2024-07-28T08:02:54.000Z</time>
      </trkpt>
      <trkpt lat="39.938314" lon="-83.726792">
        <ele>320.258469</ele>
        <time>2024-07-28T08:02:59.000Z</time>
      </trkpt>
      <trkpt lat="39.938357" lon="-83.726016">
        <ele>320.354292</ele>
        <time>2024-07-28T08:03:06.000Z</time>
      </trkpt>
      <trkpt lat="39.938356" lon="-83.725899">
        <ele>320.368425</ele>
        <time>2024-07-28T08:03:07.000Z</time>
      </trkpt>
      <trkpt lat="39.93836" lon="-83.725805">
        <ele>320.379041</ele>
        <time>2024-07-28T08:03:08.000Z</time>
      </trkpt>
      <trkpt lat="39.938393" lon="-83.725176">
        <ele>320.437346</ele>
        <time>2024-07-28T08:03:13.000Z</time>
      </trkpt>
      <trkpt lat="39.938404" lon="-83.725079">
        <ele>320.432125</ele>
        <time>2024-07-28T08:03:14.000Z</time>
      </trkpt>
      <trkpt lat="39.938428" lon="-83.724456">
        <ele>320.399597</ele>
        <time>2024-07-28T08:03:19.000Z</time>
      </trkpt>
      <trkpt lat="39.938499" lon="-83.723054">
        <ele>320.325947</ele>
        <time>2024-07-28T08:03:31.000Z</time>
      </trkpt>
      <trkpt lat="39.938588" lon="-83.721339">
        <ele>320.611048</ele>
        <time>2024-07-28T08:03:46.000Z</time>
      </trkpt>
      <trkpt lat="39.938607" lon="-83.720918">
        <ele>320.68696</ele>
        <time>2024-07-28T08:03:50.000Z</time>
      </trkpt>
      <trkpt lat="39.938613" lon="-83.720836">
        <ele>320.700747</ele>
        <time>2024-07-28T08:03:51.000Z</time>
      </trkpt>
      <trkpt lat="39.938816" lon="-83.7165">
        <ele>319.657424</ele>
        <time>2024-07-28T08:04:28.000Z</time>
      </trkpt>
      <trkpt lat="39.938881" lon="-83.716039">
        <ele>319.4688</ele>
        <time>2024-07-28T08:04:32.000Z</time>
      </trkpt>
      <trkpt lat="39.938939" lon="-83.714591">
        <ele>319.306083</ele>
        <time>2024-07-28T08:04:44.000Z</time>
      </trkpt>
      <trkpt lat="39.938954" lon="-83.714413">
        <ele>319.291805</ele>
        <time>2024-07-28T08:04:46.000Z</time>
      </trkpt>
      <trkpt lat="39.939123" lon="-83.710587">
        <ele>321.658888</ele>
        <time>2024-07-28T08:05:19.000Z</time>
      </trkpt>
      <trkpt lat="39.93913" lon="-83.710124">
        <ele>321.862164</ele>
        <time>2024-07-28T08:05:23.000Z</time>
      </trkpt>
      <trkpt lat="39.939312" lon="-83.706528">
        <ele>322.792173</ele>
        <time>2024-07-28T08:05:54.000Z</time>
      </trkpt>
      <trkpt lat="39.939539" lon="-83.702899">
        <ele>325.662301</ele>
        <time>2024-07-28T08:06:25.000Z</time>
      </trkpt>
      <trkpt lat="39.939662" lon="-83.701052">
        <ele>327.856449</ele>
        <time>2024-07-28T08:06:41.000Z</time>
      </trkpt>
      <trkpt lat="39.939755" lon="-83.700401">
        <ele>328.731822</ele>
        <time>2024-07-28T08:06:47.000Z</time>
      </trkpt>
      <trkpt lat="39.939887" lon="-83.699535">
        <ele>329.904472</ele>
        <time>2024-07-28T08:06:55.000Z</time>
      </trkpt>
      <trkpt lat="39.940032" lon="-83.698483">
        <ele>330.708493</ele>
        <time>2024-07-28T08:07:04.000Z</time>
      </trkpt>
      <trkpt lat="39.940087" lon="-83.698084">
        <ele>331.016888</ele>
        <time>2024-07-28T08:07:07.000Z</time>
      </trkpt>
      <trkpt lat="39.940495" lon="-83.695018">
        <ele>332.844335</ele>
        <time>2024-07-28T08:07:34.000Z</time>
      </trkpt>
      <trkpt lat="39.940553" lon="-83.694621">
        <ele>332.973713</ele>
        <time>2024-07-28T08:07:37.000Z</time>
      </trkpt>
      <trkpt lat="39.941053" lon="-83.691009">
        <ele>333.843661</ele>
        <time>2024-07-28T08:08:08.000Z</time>
      </trkpt>
      <trkpt lat="39.941291" lon="-83.689254">
        <ele>334.084456</ele>
        <time>2024-07-28T08:08:23.000Z</time>
      </trkpt>
      <trkpt lat="39.941576" lon="-83.687064">
        <ele>334.251843</ele>
        <time>2024-07-28T08:08:42.000Z</time>
      </trkpt>
      <trkpt lat="39.941815" lon="-83.685286">
        <ele>334.324115</ele>
        <time>2024-07-28T08:08:57.000Z</time>
      </trkpt>
      <trkpt lat="39.941865" lon="-83.68392">
        <ele>334.373891</ele>
        <time>2024-07-28T08:09:09.000Z</time>
      </trkpt>
      <trkpt lat="39.941903" lon="-83.681937">
        <ele>334.156338</ele>
        <time>2024-07-28T08:09:26.000Z</time>
      </trkpt>
      <trkpt lat="39.944617" lon="-83.681843">
        <ele>332.792793</ele>
        <time>2024-07-28T08:09:56.000Z</time>
      </trkpt>
      <trkpt lat="39.945497" lon="-83.681797">
        <ele>332.040809</ele>
        <time>2024-07-28T08:10:06.000Z</time>
      </trkpt>
      <trkpt lat="39.946392" lon="-83.681683">
        <ele>331.384967</ele>
        <time>2024-07-28T08:10:16.000Z</time>
      </trkpt>
      <trkpt lat="39.94672" lon="-83.681639">
        <ele>331.299938</ele>
        <time>2024-07-28T08:10:20.000Z</time>
      </trkpt>
      <trkpt lat="39.948144" lon="-83.681442">
        <ele>331.097343</ele>
        <time>2024-07-28T08:10:36.000Z</time>
      </trkpt>
      <trkpt lat="39.949371" lon="-83.681268">
        <ele>332.116962</ele>
        <time>2024-07-28T08:10:50.000Z</time>
      </trkpt>
      <trkpt lat="39.952198" lon="-83.680898">
        <ele>335.384233</ele>
        <time>2024-07-28T08:11:22.000Z</time>
      </trkpt>
      <trkpt lat="39.952886" lon="-83.680817">
        <ele>336.437799</ele>
        <time>2024-07-28T08:11:30.000Z</time>
      </trkpt>
      <trkpt lat="39.956251" lon="-83.680327">
        <ele>342.184539</ele>
        <time>2024-07-28T08:12:08.000Z</time>
      </trkpt>
      <trkpt lat="39.959841" lon="-83.679823">
        <ele>344.242213</ele>
        <time>2024-07-28T08:12:48.000Z</time>
      </trkpt>
      <trkpt lat="39.963149" lon="-83.679336">
        <ele>346.128879</ele>
        <time>2024-07-28T08:13:25.000Z</time>
      </trkpt>
      <trkpt lat="39.972218" lon="-83.67791">
        <ele>349.949455</ele>
        <time>2024-07-28T08:15:07.000Z</time>
      </trkpt>
      <trkpt lat="39.974504" lon="-83.677583">
        <ele>349.540154</ele>
        <time>2024-07-28T08:15:33.000Z</time>
      </trkpt>
      <trkpt lat="39.974976" lon="-83.677515">
        <ele>349.389396</ele>
        <time>2024-07-28T08:15:38.000Z</time>
      </trkpt>
      <trkpt lat="39.975083" lon="-83.677504">
        <ele>349.350921</ele>
        <time>2024-07-28T08:15:39.000Z</time>
      </trkpt>
      <trkpt lat="39.977081" lon="-83.67726">
        <ele>348.715959</ele>
        <time>2024-07-28T08:16:01.000Z</time>
      </trkpt>
      <trkpt lat="39.977683" lon="-83.677199">
        <ele>348.554344</ele>
        <time>2024-07-28T08:16:08.000Z</time>
      </trkpt>
      <trkpt lat="39.978925" lon="-83.677064">
        <ele>348.899701</ele>
        <time>2024-07-28T08:16:22.000Z</time>
      </trkpt>
      <trkpt lat="39.979252" lon="-83.677014">
        <ele>349.222985</ele>
        <time>2024-07-28T08:16:26.000Z</time>
      </trkpt>
      <trkpt lat="39.979899" lon="-83.676957">
        <ele>349.873076</ele>
        <time>2024-07-28T08:16:33.000Z</time>
      </trkpt>
      <trkpt lat="39.980673" lon="-83.676878">
        <ele>350.411658</ele>
        <time>2024-07-28T08:16:42.000Z</time>
      </trkpt>
      <trkpt lat="39.980908" lon="-83.676862">
        <ele>350.533833</ele>
        <time>2024-07-28T08:16:45.000Z</time>
      </trkpt>
      <trkpt lat="39.982272" lon="-83.676743">
        <ele>350.814165</ele>
        <time>2024-07-28T08:17:00.000Z</time>
      </trkpt>
      <trkpt lat="39.982494" lon="-83.676739">
        <ele>350.605257</ele>
        <time>2024-07-28T08:17:02.000Z</time>
      </trkpt>
      <trkpt lat="39.982505" lon="-83.677056">
        <ele>350.38054</ele>
        <time>2024-07-28T08:17:05.000Z</time>
      </trkpt>
      <trkpt lat="39.98262" lon="-83.678784">
        <ele>349.396407</ele>
        <time>2024-07-28T08:17:20.000Z</time>
      </trkpt>
      <trkpt lat="39.982722" lon="-83.680536">
        <ele>349.275854</ele>
        <time>2024-07-28T08:17:35.000Z</time>
      </trkpt>
      <trkpt lat="39.982743" lon="-83.680715">
        <ele>349.263069</ele>
        <time>2024-07-28T08:17:37.000Z</time>
      </trkpt>
      <trkpt lat="39.98282" lon="-83.680998">
        <ele>349.148751</ele>
        <time>2024-07-28T08:17:40.000Z</time>
      </trkpt>
      <trkpt lat="39.982958" lon="-83.681218">
        <ele>349.028982</ele>
        <time>2024-07-28T08:17:42.000Z</time>
      </trkpt>
      <trkpt lat="39.983203" lon="-83.681522">
        <ele>348.841979</ele>
        <time>2024-07-28T08:17:46.000Z</time>
      </trkpt>
      <trkpt lat="39.983885" lon="-83.682183">
        <ele>348.377872</ele>
        <time>2024-07-28T08:17:55.000Z</time>
      </trkpt>
      <trkpt lat="39.984915" lon="-83.683069">
        <ele>346.714903</ele>
        <time>2024-07-28T08:18:09.000Z</time>
      </trkpt>
      <trkpt lat="39.985904" lon="-83.683964">
        <ele>345.221628</ele>
        <time>2024-07-28T08:18:22.000Z</time>
      </trkpt>
      <trkpt lat="39.987984" lon="-83.685739">
        <ele>343.591139</ele>
        <time>2024-07-28T08:18:50.000Z</time>
      </trkpt>
      <trkpt lat="39.989738" lon="-83.686912">
        <ele>342.6185</ele>
        <time>2024-07-28T08:19:12.000Z</time>
      </trkpt>
      <trkpt lat="39.989971" lon="-83.687119">
        <ele>342.48275</ele>
        <time>2024-07-28T08:19:15.000Z</time>
      </trkpt>
      <trkpt lat="39.990149" lon="-83.687353">
        <ele>342.301737</ele>
        <time>2024-07-28T08:19:18.000Z</time>
      </trkpt>
      <trkpt lat="39.99024" lon="-83.687539">
        <ele>341.987174</ele>
        <time>2024-07-28T08:19:20.000Z</time>
      </trkpt>
      <trkpt lat="39.990491" lon="-83.688106">
        <ele>341.083409</ele>
        <time>2024-07-28T08:19:26.000Z</time>
      </trkpt>
      <trkpt lat="39.990572" lon="-83.688352">
        <ele>340.709943</ele>
        <time>2024-07-28T08:19:28.000Z</time>
      </trkpt>
      <trkpt lat="39.990611" lon="-83.688605">
        <ele>340.337076</ele>
        <time>2024-07-28T08:19:30.000Z</time>
      </trkpt>
      <trkpt lat="39.990777" lon="-83.691843">
        <ele>334.295584</ele>
        <time>2024-07-28T08:19:58.000Z</time>
      </trkpt>
      <trkpt lat="39.990938" lon="-83.694874">
        <ele>330.198188</ele>
        <time>2024-07-28T08:20:24.000Z</time>
      </trkpt>
      <trkpt lat="39.991156" lon="-83.698636">
        <ele>328.210774</ele>
        <time>2024-07-28T08:20:56.000Z</time>
      </trkpt>
      <trkpt lat="39.99133" lon="-83.701886">
        <ele>325.534227</ele>
        <time>2024-07-28T08:21:24.000Z</time>
      </trkpt>
      <trkpt lat="39.991397" lon="-83.703933">
        <ele>322.413351</ele>
        <time>2024-07-28T08:21:41.000Z</time>
      </trkpt>
      <trkpt lat="39.991461" lon="-83.704656">
        <ele>321.900384</ele>
        <time>2024-07-28T08:21:47.000Z</time>
      </trkpt>
      <trkpt lat="39.986843" lon="-83.705271">
        <ele>318.635959</ele>
        <time>2024-07-28T08:22:39.000Z</time>
      </trkpt>
      <trkpt lat="39.984141" lon="-83.705598">
        <ele>316.252316</ele>
        <time>2024-07-28T08:23:09.000Z</time>
      </trkpt>
      <trkpt lat="39.982618" lon="-83.705856">
        <ele>316.054292</ele>
        <time>2024-07-28T08:23:26.000Z</time>
      </trkpt>
      <trkpt lat="39.981556" lon="-83.706024">
        <ele>316.875532</ele>
        <time>2024-07-28T08:23:38.000Z</time>
      </trkpt>
      <trkpt lat="39.980764" lon="-83.706248">
        <ele>319.416965</ele>
        <time>2024-07-28T08:23:47.000Z</time>
      </trkpt>
      <trkpt lat="39.980392" lon="-83.706269">
        <ele>320.566768</ele>
        <time>2024-07-28T08:23:51.000Z</time>
      </trkpt>
      <trkpt lat="39.979823" lon="-83.706257">
        <ele>322.328043</ele>
        <time>2024-07-28T08:23:57.000Z</time>
      </trkpt>
      <trkpt lat="39.979494" lon="-83.706238">
        <ele>322.818398</ele>
        <time>2024-07-28T08:24:01.000Z</time>
      </trkpt>
      <trkpt lat="39.978935" lon="-83.706248">
        <ele>323.61476</ele>
        <time>2024-07-28T08:24:07.000Z</time>
      </trkpt>
      <trkpt lat="39.978035" lon="-83.706332">
        <ele>324.857849</ele>
        <time>2024-07-28T08:24:17.000Z</time>
      </trkpt>
      <trkpt lat="39.977719" lon="-83.706367">
        <ele>324.947765</ele>
        <time>2024-07-28T08:24:21.000Z</time>
      </trkpt>
      <trkpt lat="39.972422" lon="-83.706962">
        <ele>325.824557</ele>
        <time>2024-07-28T08:25:20.000Z</time>
      </trkpt>
      <trkpt lat="39.969418" lon="-83.707302">
        <ele>325.565914</ele>
        <time>2024-07-28T08:25:54.000Z</time>
      </trkpt>
      <trkpt lat="39.961766" lon="-83.708146">
        <ele>324.086379</ele>
        <time>2024-07-28T08:27:19.000Z</time>
      </trkpt>
      <trkpt lat="39.959333" lon="-83.708385">
        <ele>323.502632</ele>
        <time>2024-07-28T08:27:46.000Z</time>
      </trkpt>
      <trkpt lat="39.955996" lon="-83.708728">
        <ele>322.685636</ele>
        <time>2024-07-28T08:28:23.000Z</time>
      </trkpt>
      <trkpt lat="39.952398" lon="-83.709111">
        <ele>321.48636</ele>
        <time>2024-07-28T08:29:03.000Z</time>
      </trkpt>
      <trkpt lat="39.951064" lon="-83.709268">
        <ele>320.681192</ele>
        <time>2024-07-28T08:29:18.000Z</time>
      </trkpt>
      <trkpt lat="39.950404" lon="-83.709359">
        <ele>320.778764</ele>
        <time>2024-07-28T08:29:25.000Z</time>
      </trkpt>
      <trkpt lat="39.949549" lon="-83.709434">
        <ele>320.904873</ele>
        <time>2024-07-28T08:29:35.000Z</time>
      </trkpt>
      <trkpt lat="39.947297" lon="-83.709658">
        <ele>322.8324</ele>
        <time>2024-07-28T08:30:00.000Z</time>
      </trkpt>
      <trkpt lat="39.944159" lon="-83.710018">
        <ele>323.727506</ele>
        <time>2024-07-28T08:30:35.000Z</time>
      </trkpt>
      <trkpt lat="39.939442" lon="-83.710571">
        <ele>321.863358</ele>
        <time>2024-07-28T08:31:28.000Z</time>
      </trkpt>
      <trkpt lat="39.939106" lon="-83.710592">
        <ele>321.569117</ele>
        <time>2024-07-28T08:31:32.000Z</time>
      </trkpt>
      <trkpt lat="39.939026" lon="-83.712554">
        <ele>319.908013</ele>
        <time>2024-07-28T08:31:49.000Z</time>
      </trkpt>
      <trkpt lat="39.938949" lon="-83.714413">
        <ele>319.080292</ele>
        <time>2024-07-28T08:32:05.000Z</time>
      </trkpt>
      <trkpt lat="39.93895" lon="-83.714592">
        <ele>319.120747</ele>
        <time>2024-07-28T08:32:07.000Z</time>
      </trkpt>
      <trkpt lat="39.938876" lon="-83.716044">
        <ele>319.4847</ele>
        <time>2024-07-28T08:32:19.000Z</time>
      </trkpt>
      <trkpt lat="39.938821" lon="-83.716502">
        <ele>319.667616</ele>
        <time>2024-07-28T08:32:23.000Z</time>
      </trkpt>
      <trkpt lat="39.938606" lon="-83.720841">
        <ele>320.710051</ele>
        <time>2024-07-28T08:33:00.000Z</time>
      </trkpt>
      <trkpt lat="39.938607" lon="-83.720912">
        <ele>320.696066</ele>
        <time>2024-07-28T08:33:01.000Z</time>
      </trkpt>
      <trkpt lat="39.938588" lon="-83.72134">
        <ele>320.619041</ele>
        <time>2024-07-28T08:33:05.000Z</time>
      </trkpt>
      <trkpt lat="39.938505" lon="-83.723056">
        <ele>320.315616</ele>
        <time>2024-07-28T08:33:20.000Z</time>
      </trkpt>
      <trkpt lat="39.938428" lon="-83.724451">
        <ele>320.397785</ele>
        <time>2024-07-28T08:33:32.000Z</time>
      </trkpt>
      <trkpt lat="39.938388" lon="-83.725066">
        <ele>320.434097</ele>
        <time>2024-07-28T08:33:37.000Z</time>
      </trkpt>
      <trkpt lat="39.9384" lon="-83.725176">
        <ele>320.439915</ele>
        <time>2024-07-28T08:33:38.000Z</time>
      </trkpt>
      <trkpt lat="39.938364" lon="-83.725807">
        <ele>320.387164</ele>
        <time>2024-07-28T08:33:43.000Z</time>
      </trkpt>
      <trkpt lat="39.938358" lon="-83.725883">
        <ele>320.375414</ele>
        <time>2024-07-28T08:33:44.000Z</time>
      </trkpt>
      <trkpt lat="39.938362" lon="-83.72601">
        <ele>320.359748</ele>
        <time>2024-07-28T08:33:45.000Z</time>
      </trkpt>
      <trkpt lat="39.938314" lon="-83.726799">
        <ele>320.253606</ele>
        <time>2024-07-28T08:33:52.000Z</time>
      </trkpt>
      <trkpt lat="39.938298" lon="-83.727385">
        <ele>320.173266</ele>
        <time>2024-07-28T08:33:57.000Z</time>
      </trkpt>
      <trkpt lat="39.938173" lon="-83.730323">
        <ele>319.213287</ele>
        <time>2024-07-28T08:34:22.000Z</time>
      </trkpt>
      <trkpt lat="39.939822" lon="-83.730089">
        <ele>319.470377</ele>
        <time>2024-07-28T08:34:40.000Z</time>
      </trkpt>
      <trkpt lat="39.940702" lon="-83.729959">
        <ele>319.367489</ele>
        <time>2024-07-28T08:34:50.000Z</time>
      </trkpt>
      <trkpt lat="39.94188" lon="-83.729822">
        <ele>319.236098</ele>
        <time>2024-07-28T08:35:03.000Z</time>
      </trkpt>
      <trkpt lat="39.942365" lon="-83.729763">
        <ele>319.187926</ele>
        <time>2024-07-28T08:35:08.000Z</time>
      </trkpt>
      <trkpt lat="39.943165" lon="-83.729655">
        <ele>319.109789</ele>
        <time>2024-07-28T08:35:17.000Z</time>
      </trkpt>
      <trkpt lat="39.94442" lon="-83.729503">
        <ele>319.593194</ele>
        <time>2024-07-28T08:35:31.000Z</time>
      </trkpt>
      <trkpt lat="39.944884" lon="-83.729451">
        <ele>319.795102</ele>
        <time>2024-07-28T08:35:36.000Z</time>
      </trkpt>
      <trkpt lat="39.945198" lon="-83.72944">
        <ele>319.95889</ele>
        <time>2024-07-28T08:35:39.000Z</time>
      </trkpt>
      <trkpt lat="39.945519" lon="-83.729454">
        <ele>320.190339</ele>
        <time>2024-07-28T08:35:43.000Z</time>
      </trkpt>
      <trkpt lat="39.945971" lon="-83.729496">
        <ele>320.517306</ele>
        <time>2024-07-28T08:35:48.000Z</time>
      </trkpt>
      <trkpt lat="39.946856" lon="-83.729702">
        <ele>321.17354</ele>
        <time>2024-07-28T08:35:58.000Z</time>
      </trkpt>
      <trkpt lat="39.947303" lon="-83.729786">
        <ele>321.18999</ele>
        <time>2024-07-28T08:36:03.000Z</time>
      </trkpt>
      <trkpt lat="39.947794" lon="-83.72985">
        <ele>321.195368</ele>
        <time>2024-07-28T08:36:08.000Z</time>
      </trkpt>
      <trkpt lat="39.9483" lon="-83.729851">
        <ele>321.200985</ele>
        <time>2024-07-28T08:36:14.000Z</time>
      </trkpt>
      <trkpt lat="39.948804" lon="-83.729766">
        <ele>321.205837215</ele>
        <time>2024-07-28T08:36:20.000Z</time>
      </trkpt>
      <trkpt lat="39.9488" lon="-83.730157">
        <ele>321.208699444</ele>
        <time>2024-07-28T08:36:23.000Z</time>
      </trkpt>
      <trkpt lat="39.948763" lon="-83.730357">
        <ele>321.210205393</ele>
        <time>2024-07-28T08:36:25.000Z</time>
      </trkpt>
      <trkpt lat="39.948797" lon="-83.730932">
        <ele>321.214426681</ele>
        <time>2024-07-28T08:36:30.000Z</time>
      </trkpt>
      <trkpt lat="39.948781" lon="-83.731057">
        <ele>321.2153543</ele>
        <time>2024-07-28T08:36:31.000Z</time>
      </trkpt>
      <trkpt lat="39.948614" lon="-83.731169">
        <ele>321.217147209</ele>
        <time>2024-07-28T08:36:33.000Z</time>
      </trkpt>
      <trkpt lat="39.948359" lon="-83.731288">
        <ele>321.219733053</ele>
        <time>2024-07-28T08:36:36.000Z</time>
      </trkpt>
      <trkpt lat="39.948181" lon="-83.731376">
        <ele>321.221550557</ele>
        <time>2024-07-28T08:36:38.000Z</time>
      </trkpt>
      <trkpt lat="39.947951" lon="-83.731476">
        <ele>321.22386536</ele>
        <time>2024-07-28T08:36:41.000Z</time>
      </trkpt>
      <trkpt lat="39.947386" lon="-83.731665">
        <ele>321.229434511</ele>
        <time>2024-07-28T08:36:47.000Z</time>
      </trkpt>
      <trkpt lat="39.947338" lon="-83.73168">
        <ele>321.22990578</ele>
        <time>2024-07-28T08:36:48.000Z</time>
      </trkpt>
      <trkpt lat="39.947332" lon="-83.731674">
        <ele>321.229977966</ele>
        <time>2024-07-28T08:36:48.000Z</time>
      </trkpt>
    </trkseg>
  </trk>
</gpx>

<!--
Performance optimized by W3 Total Cache. Learn more: https://www.boldgrid.com/w3-total-cache/?utm_source=w3tc&utm_medium=footer_comment&utm_campaign=free_plugin

Page Caching using Disk: Enhanced{w3tc_pagecache_reject_reason} 

Served from: www.aquabike.world @ 2026-05-10 18:49:47 by W3 Total Cache
-->